GEC2168 EDDF-EDDP
Flight info
| Callsign | GEC2168 |
|---|---|
| Flight time | 0h 32m |
| Altitude | 25000 |
| Route | SULUS7S/18 SULUS Z12 LASGA T953 VOCIM T954 GOXLI GOXLI1R |
| Aircraft | B77L/H-SDE1E2E3FGHIJ2J3J4J5M1RWXY/LB1D1 |
Departure
| Time | 2026-04-17 21:46 |
|---|---|
| Airport | Frankfurt Main Airport (EDDF) |
Arrival
| Time | 2026-04-17 22:19 |
|---|---|
| Airport | Leipzig/Halle Airport (EDDP) |
| Time | Latitude | Longitude | Altitude | Speed | Heading |
|---|---|---|---|---|---|
| 2026-04-17 21:16 | 50.04055 | 8.54762 | 362 ft | 0 kts | 70° |
| 2026-04-17 21:33 | 50.04053 | 8.54752 | 364 ft | 4 kts | 69° |
| 2026-04-17 21:33 | 50.04044 | 8.54713 | 363 ft | 4 kts | 72° |
| 2026-04-17 21:33 | 50.04038 | 8.54673 | 363 ft | 4 kts | 99° |
| 2026-04-17 21:33 | 50.04042 | 8.54655 | 363 ft | 4 kts | 149° |
| 2026-04-17 21:34 | 50.04045 | 8.54651 | 363 ft | 1 kts | 159° |
| 2026-04-17 21:34 | 50.04028 | 8.54661 | 363 ft | 2 kts | 159° |
| 2026-04-17 21:34 | 50.04027 | 8.54662 | 363 ft | 4 kts | 160° |
| 2026-04-17 21:38 | 50.04018 | 8.54667 | 361 ft | 2 kts | 160° |
| 2026-04-17 21:38 | 50.03996 | 8.54679 | 359 ft | 4 kts | 160° |
| 2026-04-17 21:39 | 50.03967 | 8.54686 | 361 ft | 5 kts | 193° |
| 2026-04-17 21:39 | 50.03939 | 8.54655 | 362 ft | 5 kts | 227° |
| 2026-04-17 21:39 | 50.03920 | 8.54600 | 356 ft | 7 kts | 248° |
| 2026-04-17 21:39 | 50.03899 | 8.54525 | 360 ft | 9 kts | 246° |
| 2026-04-17 21:40 | 50.03874 | 8.54428 | 357 ft | 11 kts | 248° |
| 2026-04-17 21:40 | 50.03837 | 8.54323 | 360 ft | 12 kts | 238° |
| 2026-04-17 21:40 | 50.03797 | 8.54208 | 356 ft | 13 kts | 248° |
| 2026-04-17 21:40 | 50.03765 | 8.54073 | 359 ft | 14 kts | 250° |
| 2026-04-17 21:41 | 50.03731 | 8.53931 | 354 ft | 14 kts | 250° |
| 2026-04-17 21:41 | 50.03693 | 8.53780 | 354 ft | 15 kts | 249° |
| 2026-04-17 21:41 | 50.03669 | 8.53675 | 352 ft | 16 kts | 250° |
| 2026-04-17 21:41 | 50.03628 | 8.53515 | 350 ft | 16 kts | 249° |
| 2026-04-17 21:42 | 50.03590 | 8.53352 | 351 ft | 16 kts | 250° |
| 2026-04-17 21:42 | 50.03551 | 8.53189 | 349 ft | 16 kts | 246° |
| 2026-04-17 21:42 | 50.03509 | 8.53024 | 351 ft | 16 kts | 249° |
| 2026-04-17 21:42 | 50.03467 | 8.52862 | 337 ft | 14 kts | 247° |
| 2026-04-17 21:43 | 50.03442 | 8.52762 | 337 ft | 0 kts | 249° |
| 2026-04-17 21:44 | 50.03440 | 8.52757 | 336 ft | 0 kts | 249° |
| 2026-04-17 21:45 | 50.03440 | 8.52756 | 336 ft | 2 kts | 249° |
| 2026-04-17 21:45 | 50.03419 | 8.52668 | 336 ft | 16 kts | 249° |
| 2026-04-17 21:45 | 50.03369 | 8.52599 | 336 ft | 4 kts | 183° |
| 2026-04-17 21:45 | 50.03334 | 8.52594 | 337 ft | 6 kts | 182° |
| 2026-04-17 21:46 | 50.03249 | 8.52593 | 336 ft | 29 kts | 179° |
| 2026-04-17 21:46 | 50.02724 | 8.52599 | 337 ft | 133 kts | 179° |
| 2026-04-17 21:46 | 50.01504 | 8.52604 | 940 ft | 189 kts | 180° |
| 2026-04-17 21:46 | 50.00231 | 8.52608 | 2611 ft | 176 kts | 180° |
| 2026-04-17 21:47 | 49.98977 | 8.52616 | 3543 ft | 188 kts | 180° |
| 2026-04-17 21:47 | 49.97585 | 8.52632 | 3998 ft | 216 kts | 180° |
| 2026-04-17 21:47 | 49.96004 | 8.52657 | 3976 ft | 231 kts | 179° |
| 2026-04-17 21:47 | 49.94392 | 8.52685 | 3981 ft | 232 kts | 179° |
| 2026-04-17 21:48 | 49.92771 | 8.52715 | 4288 ft | 237 kts | 179° |
| 2026-04-17 21:48 | 49.91099 | 8.53347 | 4759 ft | 262 kts | 146° |
| 2026-04-17 21:48 | 49.89931 | 8.55540 | 5796 ft | 271 kts | 111° |
| 2026-04-17 21:48 | 49.89755 | 8.58445 | 6898 ft | 277 kts | 79° |
| 2026-04-17 21:49 | 49.90549 | 8.61155 | 7860 ft | 279 kts | 60° |
| 2026-04-17 21:49 | 49.91485 | 8.63810 | 8816 ft | 287 kts | 64° |
| 2026-04-17 21:49 | 49.92377 | 8.66610 | 9943 ft | 291 kts | 65° |
| 2026-04-17 21:49 | 49.93257 | 8.69470 | 10885 ft | 300 kts | 65° |
| 2026-04-17 21:50 | 49.94183 | 8.72528 | 11299 ft | 329 kts | 65° |
| 2026-04-17 21:50 | 49.95244 | 8.75874 | 11559 ft | 361 kts | 64° |
| 2026-04-17 21:50 | 49.96354 | 8.79536 | 12055 ft | 384 kts | 65° |
| 2026-04-17 21:50 | 49.97462 | 8.83372 | 12918 ft | 395 kts | 66° |
| 2026-04-17 21:51 | 49.98588 | 8.87316 | 13893 ft | 403 kts | 65° |
| 2026-04-17 21:51 | 49.99737 | 8.91331 | 14831 ft | 409 kts | 65° |
| 2026-04-17 21:51 | 50.00902 | 8.95390 | 15815 ft | 413 kts | 65° |
| 2026-04-17 21:51 | 50.02085 | 8.99495 | 16770 ft | 418 kts | 65° |
| 2026-04-17 21:52 | 50.03284 | 9.03646 | 17683 ft | 424 kts | 65° |
| 2026-04-17 21:52 | 50.04504 | 9.07865 | 18564 ft | 430 kts | 65° |
| 2026-04-17 21:52 | 50.05738 | 9.12138 | 19353 ft | 435 kts | 65° |
| 2026-04-17 21:52 | 50.06985 | 9.16461 | 20158 ft | 440 kts | 64° |
| 2026-04-17 21:53 | 50.08239 | 9.20814 | 21010 ft | 443 kts | 64° |
| 2026-04-17 21:53 | 50.09505 | 9.25214 | 21771 ft | 448 kts | 64° |
| 2026-04-17 21:53 | 50.10786 | 9.29679 | 22524 ft | 454 kts | 64° |
| 2026-04-17 21:53 | 50.12062 | 9.34132 | 23251 ft | 459 kts | 64° |
| 2026-04-17 21:54 | 50.13369 | 9.38704 | 23956 ft | 464 kts | 64° |
| 2026-04-17 21:54 | 50.14685 | 9.43318 | 24594 ft | 468 kts | 64° |
| 2026-04-17 21:54 | 50.16011 | 9.47976 | 25156 ft | 472 kts | 64° |
| 2026-04-17 21:54 | 50.17339 | 9.52649 | 25184 ft | 472 kts | 64° |
| 2026-04-17 21:55 | 50.18666 | 9.57328 | 25192 ft | 472 kts | 64° |
| 2026-04-17 21:55 | 50.19993 | 9.62019 | 25195 ft | 472 kts | 64° |
| 2026-04-17 21:55 | 50.21318 | 9.66709 | 25192 ft | 473 kts | 64° |
| 2026-04-17 21:55 | 50.22640 | 9.71402 | 25196 ft | 472 kts | 64° |
| 2026-04-17 21:56 | 50.23965 | 9.76110 | 25201 ft | 472 kts | 64° |
| 2026-04-17 21:56 | 50.25284 | 9.80809 | 25197 ft | 471 kts | 64° |
| 2026-04-17 21:56 | 50.26598 | 9.85500 | 25197 ft | 471 kts | 64° |
| 2026-04-17 21:56 | 50.27914 | 9.90204 | 25195 ft | 471 kts | 64° |
| 2026-04-17 21:57 | 50.29225 | 9.94897 | 25187 ft | 471 kts | 64° |
| 2026-04-17 21:57 | 50.30534 | 9.99597 | 25193 ft | 471 kts | 64° |
| 2026-04-17 21:57 | 50.31840 | 10.04294 | 25200 ft | 471 kts | 64° |
| 2026-04-17 21:57 | 50.33146 | 10.09002 | 25197 ft | 471 kts | 64° |
| 2026-04-17 21:58 | 50.34433 | 10.13650 | 25197 ft | 471 kts | 64° |
| 2026-04-17 21:58 | 50.35735 | 10.18363 | 25199 ft | 471 kts | 64° |
| 2026-04-17 21:58 | 50.37031 | 10.23062 | 24898 ft | 470 kts | 64° |
| 2026-04-17 21:58 | 50.38326 | 10.27767 | 24124 ft | 470 kts | 64° |
| 2026-04-17 21:59 | 50.39607 | 10.32432 | 24190 ft | 467 kts | 64° |
| 2026-04-17 21:59 | 50.40895 | 10.37130 | 24233 ft | 469 kts | 64° |
| 2026-04-17 21:59 | 50.42179 | 10.41822 | 24291 ft | 467 kts | 64° |
| 2026-04-17 21:59 | 50.43455 | 10.46496 | 24297 ft | 466 kts | 64° |
| 2026-04-17 22:00 | 50.44729 | 10.51168 | 24196 ft | 467 kts | 64° |
| 2026-04-17 22:00 | 50.46009 | 10.55874 | 23743 ft | 469 kts | 65° |
| 2026-04-17 22:00 | 50.47266 | 10.60507 | 23143 ft | 465 kts | 65° |
| 2026-04-17 22:00 | 50.48522 | 10.65148 | 22523 ft | 460 kts | 65° |
| 2026-04-17 22:01 | 50.49762 | 10.69736 | 21914 ft | 453 kts | 65° |
| 2026-04-17 22:01 | 50.50982 | 10.74264 | 21329 ft | 447 kts | 65° |
| 2026-04-17 22:01 | 50.52187 | 10.78740 | 20790 ft | 441 kts | 65° |
| 2026-04-17 22:01 | 50.53373 | 10.83153 | 20293 ft | 434 kts | 65° |
| 2026-04-17 22:02 | 50.54540 | 10.87505 | 19792 ft | 429 kts | 65° |
| 2026-04-17 22:02 | 50.58051 | 11.00637 | 18294 ft | 414 kts | 65° |
| 2026-04-17 22:02 | 50.59360 | 11.05554 | 17676 ft | 413 kts | 65° |
| 2026-04-17 22:02 | 50.60475 | 11.09746 | 17160 ft | 416 kts | 65° |
| 2026-04-17 22:03 | 50.61592 | 11.13956 | 16648 ft | 416 kts | 65° |
| 2026-04-17 22:03 | 50.62869 | 11.17960 | 16118 ft | 408 kts | 53° |
| 2026-04-17 22:03 | 50.64729 | 11.21205 | 15627 ft | 403 kts | 38° |
| 2026-04-17 22:03 | 50.67034 | 11.23637 | 15148 ft | 395 kts | 25° |
| 2026-04-17 22:04 | 50.69525 | 11.25429 | 14670 ft | 392 kts | 22° |
| 2026-04-17 22:04 | 50.72008 | 11.27173 | 14201 ft | 388 kts | 22° |
| 2026-04-17 22:04 | 50.74420 | 11.28880 | 13651 ft | 369 kts | 22° |
| 2026-04-17 22:04 | 50.76686 | 11.30504 | 13112 ft | 347 kts | 22° |
| 2026-04-17 22:05 | 50.78825 | 11.32048 | 12599 ft | 329 kts | 22° |
| 2026-04-17 22:05 | 50.80864 | 11.33524 | 12198 ft | 320 kts | 22° |
| 2026-04-17 22:05 | 50.82874 | 11.34982 | 11806 ft | 316 kts | 22° |
| 2026-04-17 22:05 | 50.84861 | 11.36427 | 11439 ft | 312 kts | 23° |
| 2026-04-17 22:06 | 50.86817 | 11.37854 | 11422 ft | 313 kts | 23° |
| 2026-04-17 22:06 | 50.88826 | 11.39321 | 11268 ft | 318 kts | 23° |
| 2026-04-17 22:06 | 50.90824 | 11.40783 | 10920 ft | 311 kts | 23° |
| 2026-04-17 22:06 | 50.92740 | 11.42191 | 10521 ft | 296 kts | 23° |
| 2026-04-17 22:07 | 50.94547 | 11.43520 | 10160 ft | 286 kts | 23° |
| 2026-04-17 22:07 | 50.96347 | 11.44842 | 9757 ft | 286 kts | 23° |
| 2026-04-17 22:07 | 50.98176 | 11.46185 | 9388 ft | 292 kts | 23° |
| 2026-04-17 22:07 | 51.00029 | 11.47548 | 9008 ft | 294 kts | 23° |
| 2026-04-17 22:08 | 51.01873 | 11.48908 | 8613 ft | 291 kts | 23° |
| 2026-04-17 22:08 | 51.03701 | 11.50256 | 8234 ft | 288 kts | 24° |
| 2026-04-17 22:08 | 51.05506 | 11.51588 | 7889 ft | 285 kts | 24° |
| 2026-04-17 22:08 | 51.07284 | 11.52902 | 7632 ft | 278 kts | 24° |
| 2026-04-17 22:09 | 51.09022 | 11.54187 | 7372 ft | 273 kts | 24° |
| 2026-04-17 22:09 | 51.10747 | 11.55462 | 7127 ft | 273 kts | 24° |
| 2026-04-17 22:09 | 51.12443 | 11.56821 | 6887 ft | 273 kts | 27° |
| 2026-04-17 22:09 | 51.14090 | 11.58253 | 6650 ft | 273 kts | 28° |
| 2026-04-17 22:10 | 51.15752 | 11.59715 | 6397 ft | 273 kts | 28° |
| 2026-04-17 22:10 | 51.17418 | 11.61178 | 6136 ft | 273 kts | 28° |
| 2026-04-17 22:10 | 51.19083 | 11.62638 | 5894 ft | 273 kts | 28° |
| 2026-04-17 22:10 | 51.20765 | 11.64107 | 5576 ft | 276 kts | 28° |
| 2026-04-17 22:11 | 51.22453 | 11.65580 | 5255 ft | 275 kts | 28° |
| 2026-04-17 22:11 | 51.24118 | 11.67034 | 4922 ft | 271 kts | 28° |
| 2026-04-17 22:11 | 51.27056 | 11.69601 | 4303 ft | 264 kts | 30° |
| 2026-04-17 22:11 | 51.28508 | 11.71331 | 3976 ft | 260 kts | 44° |
| 2026-04-17 22:12 | 51.29782 | 11.73365 | 3656 ft | 257 kts | 47° |
| 2026-04-17 22:12 | 51.31015 | 11.75408 | 3330 ft | 254 kts | 47° |
| 2026-04-17 22:12 | 51.32241 | 11.77420 | 3067 ft | 248 kts | 47° |
| 2026-04-17 22:12 | 51.33416 | 11.79319 | 3000 ft | 233 kts | 47° |
| 2026-04-17 22:13 | 51.34518 | 11.81077 | 3019 ft | 215 kts | 47° |
| 2026-04-17 22:13 | 51.35557 | 11.82728 | 2978 ft | 211 kts | 47° |
| 2026-04-17 22:13 | 51.36595 | 11.84377 | 2980 ft | 213 kts | 47° |
| 2026-04-17 22:13 | 51.37651 | 11.86049 | 2977 ft | 209 kts | 47° |
| 2026-04-17 22:14 | 51.38660 | 11.87647 | 3003 ft | 204 kts | 48° |
| 2026-04-17 22:14 | 51.39403 | 11.89520 | 2986 ft | 200 kts | 77° |
| 2026-04-17 22:14 | 51.39668 | 11.91703 | 3006 ft | 203 kts | 81° |
| 2026-04-17 22:14 | 51.39884 | 11.93952 | 3000 ft | 205 kts | 85° |
| 2026-04-17 22:15 | 51.40019 | 11.96203 | 2981 ft | 202 kts | 87° |
| 2026-04-17 22:15 | 51.40127 | 11.98437 | 2982 ft | 199 kts | 87° |
| 2026-04-17 22:15 | 51.40228 | 12.00586 | 2903 ft | 191 kts | 88° |
| 2026-04-17 22:15 | 51.40325 | 12.02677 | 2614 ft | 183 kts | 88° |
| 2026-04-17 22:16 | 51.40417 | 12.04621 | 2375 ft | 167 kts | 88° |
| 2026-04-17 22:16 | 51.40498 | 12.06361 | 2165 ft | 145 kts | 87° |
| 2026-04-17 22:16 | 51.40569 | 12.07872 | 1990 ft | 131 kts | 88° |
| 2026-04-17 22:16 | 51.40637 | 12.09332 | 1821 ft | 132 kts | 87° |
| 2026-04-17 22:17 | 51.40705 | 12.10801 | 1644 ft | 133 kts | 87° |
| 2026-04-17 22:17 | 51.40775 | 12.12282 | 1453 ft | 133 kts | 87° |
| 2026-04-17 22:17 | 51.40844 | 12.13763 | 1287 ft | 134 kts | 86° |
| 2026-04-17 22:17 | 51.40917 | 12.15244 | 1087 ft | 133 kts | 86° |
| 2026-04-17 22:18 | 51.40986 | 12.16721 | 923 ft | 133 kts | 86° |
| 2026-04-17 22:18 | 51.41051 | 12.18200 | 739 ft | 132 kts | 87° |
| 2026-04-17 22:18 | 51.41121 | 12.19660 | 559 ft | 131 kts | 85° |
| 2026-04-17 22:18 | 51.41188 | 12.21100 | 452 ft | 124 kts | 85° |
| 2026-04-17 22:19 | 51.41243 | 12.22243 | 460 ft | 77 kts | 85° |
| 2026-04-17 22:19 | 51.41270 | 12.22810 | 466 ft | 38 kts | 86° |
| 2026-04-17 22:19 | 51.41288 | 12.23206 | 470 ft | 34 kts | 85° |
| 2026-04-17 22:19 | 51.41305 | 12.23567 | 470 ft | 31 kts | 85° |
| 2026-04-17 22:20 | 51.41308 | 12.23882 | 471 ft | 21 kts | 99° |
| 2026-04-17 22:20 | 51.41258 | 12.24100 | 469 ft | 21 kts | 119° |
| 2026-04-17 22:20 | 51.41196 | 12.24310 | 471 ft | 13 kts | 112° |
| 2026-04-17 22:20 | 51.41193 | 12.24320 | 471 ft | 2 kts | 117° |
| 2026-04-17 22:21 | 51.41159 | 12.24322 | 469 ft | 13 kts | 211° |
| 2026-04-17 22:21 | 51.41150 | 12.24159 | 469 ft | 20 kts | 272° |
| 2026-04-17 22:21 | 51.41151 | 12.23932 | 469 ft | 20 kts | 268° |
| 2026-04-17 22:21 | 51.41143 | 12.23706 | 468 ft | 20 kts | 264° |
| 2026-04-17 22:22 | 51.41130 | 12.23475 | 474 ft | 24 kts | 266° |
| 2026-04-17 22:22 | 51.41116 | 12.23136 | 469 ft | 38 kts | 266° |
| 2026-04-17 22:22 | 51.41092 | 12.22658 | 463 ft | 45 kts | 265° |
| 2026-04-17 22:22 | 51.41068 | 12.22168 | 461 ft | 43 kts | 265° |
| 2026-04-17 22:23 | 51.41047 | 12.21699 | 463 ft | 41 kts | 266° |
| 2026-04-17 22:23 | 51.41026 | 12.21238 | 455 ft | 42 kts | 265° |
| 2026-04-17 22:23 | 51.41004 | 12.20782 | 433 ft | 25 kts | 265° |
| 2026-04-17 22:23 | 51.40991 | 12.20523 | 438 ft | 23 kts | 261° |
| 2026-04-17 22:24 | 51.40930 | 12.20399 | 428 ft | 13 kts | 243° |
| 2026-04-17 22:24 | 51.40891 | 12.20313 | 433 ft | 4 kts | 192° |
| 2026-04-17 22:24 | 51.40859 | 12.20313 | 436 ft | 5 kts | 176° |
| 2026-04-17 22:24 | 51.40825 | 12.20317 | 433 ft | 3 kts | 176° |
| 2026-04-17 22:25 | 51.40818 | 12.20318 | 437 ft | 0 kts | 176° |
| 2026-04-17 22:25 | 51.40814 | 12.20319 | 437 ft | 1 kts | 176° |
| 2026-04-17 22:25 | 51.40813 | 12.20319 | 437 ft | 0 kts | 176° |